Time;durP1;ratioP1;P1;durP2;ratioP2;P2;SDS_P1;SDS_P2;PMS_P1;PMS_P2;Temp;Humidity;BMP_temperature;BMP_pressure;BME280_temperature;BME280_humidity;BME280_pressure;Samples;Min_cycle;Max_cycle;Signal;HPM_P1;HPM_P2
2022/09/23 00:01:13;;;;;;;8.38;7.47;;;9.40;89.60;;;;;;5029634;28;20101;-49
2022/09/23 00:03:42;;;;;;;10.85;8.60;;;9.50;89.60;;;;;;5031643;28;20029;-43
2022/09/23 00:06:13;;;;;;;10.47;8.63;;;9.50;89.70;;;;;;5014354;28;20021;-46
2022/09/23 00:08:41;;;;;;;9.85;8.88;;;9.50;89.60;;;;;;4998531;28;20276;-45
2022/09/23 00:11:18;;;;;;;10.55;9.45;;;9.50;89.60;;;;;;5013430;28;20029;-46
2022/09/23 00:13:47;;;;;;;14.82;9.27;;;9.50;89.60;;;;;;5031186;28;20028;-47
2022/09/23 00:16:20;;;;;;;11.13;8.40;;;9.60;89.60;;;;;;5029385;28;20022;-45
2022/09/23 00:18:47;;;;;;;12.88;7.88;;;9.50;89.50;;;;;;5013747;28;20038;-45
2022/09/23 00:21:14;;;;;;;9.32;8.38;;;9.50;89.60;;;;;;5031241;28;20025;-43
2022/09/23 00:23:42;;;;;;;10.75;8.32;;;9.50;89.60;;;;;;5011770;28;20168;-47
2022/09/23 00:26:11;;;;;;;13.10;8.57;;;9.60;89.70;;;;;;5031283;28;20036;-43
2022/09/23 00:28:39;;;;;;;10.32;8.30;;;9.70;89.70;;;;;;5013968;28;20022;-47
2022/09/23 00:31:11;;;;;;;9.55;8.57;;;9.70;89.60;;;;;;5028882;28;20128;-49
2022/09/23 00:33:39;;;;;;;10.23;9.13;;;9.70;89.60;;;;;;5023958;28;20104;-47
2022/09/23 00:36:18;;;;;;;12.50;10.05;;;9.70;89.50;;;;;;5031659;28;20172;-47
2022/09/23 00:38:45;;;;;;;9.30;8.37;;;9.70;89.50;;;;;;5031377;28;20065;-48
2022/09/23 00:41:14;;;;;;;9.82;8.50;;;9.80;89.60;;;;;;5029860;28;20033;-44
2022/09/23 00:43:52;;;;;;;12.20;9.10;;;9.80;89.50;;;;;;5030622;28;20030;-44
2022/09/23 00:46:22;;;;;;;10.13;8.82;;;9.90;89.60;;;;;;5028631;28;20049;-44
2022/09/23 00:48:52;;;;;;;;;;;9.90;89.60;;;;;;5030925;28;20021;-46
2022/09/23 00:51:21;;;;;;;12.15;9.35;;;9.90;89.60;;;;;;5030552;28;20381;-44
2022/09/23 00:53:50;;;;;;;11.38;8.73;;;9.90;89.50;;;;;;5029274;28;20037;-44
2022/09/23 00:56:20;;;;;;;11.10;8.80;;;9.90;89.40;;;;;;5012884;28;20047;-45
2022/09/23 00:58:49;;;;;;;13.18;8.68;;;10.00;89.40;;;;;;5030788;28;20044;-44
2022/09/23 01:01:16;;;;;;;10.75;7.93;;;10.00;89.40;;;;;;4994591;28;20049;-46
2022/09/23 01:03:45;;;;;;;9.40;8.32;;;10.00;89.40;;;;;;5012361;28;20037;-45
2022/09/23 01:06:15;;;;;;;9.40;8.27;;;10.00;89.40;;;;;;5030692;28;20024;-45
2022/09/23 01:08:44;;;;;;;10.05;8.98;;;10.00;89.30;;;;;;5030684;28;20339;-44
2022/09/23 01:11:29;;;;;;;10.02;8.85;;;10.00;89.30;;;;;;5028526;28;20370;-46
2022/09/23 01:14:15;;;;;;;9.85;8.52;;;10.10;89.20;;;;;;5029949;28;20033;-47
2022/09/23 01:17:19;;;;;;;10.32;8.75;;;10.00;89.20;;;;;;5027908;28;20033;-43
2022/09/23 01:20:21;;;;;;;10.38;7.45;;;10.00;89.00;;;;;;5026835;28;20491;-46
2022/09/23 01:23:20;;;;;;;10.77;7.55;;;10.10;89.10;;;;;;5030101;28;20037;-44
2022/09/23 01:26:19;;;;;;;8.52;7.40;;;10.10;88.90;;;;;;5011808;28;20061;-47
2022/09/23 01:29:22;;;;;;;8.85;7.28;;;10.10;88.80;;;;;;5012732;28;20445;-45
2022/09/23 01:32:06;;;;;;;8.85;6.65;;;10.10;88.70;;;;;;5029260;28;20017;-45
2022/09/23 01:34:46;;;;;;;7.70;6.40;;;10.10;88.60;;;;;;5029886;28;20033;-45
2022/09/23 01:37:59;;;;;;;10.40;6.97;;;10.10;88.50;;;;;;5029656;28;20041;-46
2022/09/23 01:40:43;;;;;;;8.00;7.20;;;10.10;88.40;;;;;;5007760;28;20041;-43
2022/09/23 01:43:31;;;;;;;10.48;7.28;;;10.10;88.40;;;;;;5011619;28;20343;-45
2022/09/23 01:46:01;;;;;;;10.40;7.95;;;10.00;88.30;;;;;;5030194;28;20029;-44
2022/09/23 01:48:45;;;;;;;;;;;10.00;88.20;;;;;;5028151;28;20332;-44
2022/09/23 01:51:31;;;;;;;11.27;7.30;;;10.00;88.10;;;;;;5012043;28;19936;-46
2022/09/23 01:54:00;;;;;;;8.35;6.65;;;10.10;88.00;;;;;;5028263;28;20025;-44
2022/09/23 01:57:00;;;;;;;9.03;6.80;;;10.10;87.90;;;;;;5029279;28;20029;-44
2022/09/23 01:59:45;;;;;;;8.48;7.03;;;10.10;87.80;;;;;;4996954;28;20485;-45
2022/09/23 02:02:43;;;;;;;8.20;7.35;;;10.00;87.70;;;;;;5027506;28;20053;-48
2022/09/23 02:05:20;;;;;;;7.57;6.05;;;10.00;87.70;;;;;;4986299;28;20109;-44
2022/09/23 02:08:00;;;;;;;7.38;6.40;;;10.00;87.60;;;;;;5009127;28;20343;-45
2022/09/23 02:10:34;;;;;;;7.93;6.45;;;10.00;87.40;;;;;;5009531;28;20335;-45
2022/09/23 02:13:07;;;;;;;11.57;6.50;;;10.00;87.40;;;;;;5018123;28;20022;-46
2022/09/23 02:15:40;;;;;;;12.38;6.53;;;10.00;87.40;;;;;;5029342;28;20458;-43
2022/09/23 02:18:18;;;;;;;9.82;7.05;;;9.90;87.40;;;;;;5027417;28;20082;-47
2022/09/23 02:20:53;;;;;;;7.97;6.43;;;9.90;87.40;;;;;;5029302;28;20026;-47
2022/09/23 02:23:38;;;;;;;6.88;5.85;;;9.90;87.40;;;;;;5012052;28;20486;-45
2022/09/23 02:26:26;;;;;;;7.45;5.85;;;9.90;87.40;;;;;;5012169;28;20508;-45
2022/09/23 02:29:17;;;;;;;8.02;6.82;;;9.90;87.50;;;;;;5029312;28;20022;-45
2022/09/23 02:32:04;;;;;;;10.48;6.32;;;9.90;87.50;;;;;;5026856;28;20022;-43
2022/09/23 02:35:00;;;;;;;7.65;5.93;;;9.90;87.40;;;;;;5008745;28;20088;-44
2022/09/23 02:37:44;;;;;;;11.27;7.30;;;9.90;87.50;;;;;;5009533;28;20505;-44
2022/09/23 02:40:33;;;;;;;9.38;6.35;;;9.90;87.50;;;;;;5009342;28;20030;-46
2022/09/23 02:43:11;;;;;;;12.70;7.75;;;9.80;87.40;;;;;;5010238;28;20459;-45
2022/09/23 02:45:38;;;;;;;9.05;7.57;;;9.80;87.40;;;;;;5009726;28;20030;-44
2022/09/23 02:48:15;;;;;;;7.18;6.18;;;9.80;87.50;;;;;;5022421;28;20037;-44
2022/09/23 02:50:41;;;;;;;8.75;6.90;;;9.80;87.40;;;;;;5032659;28;20025;-44
2022/09/23 02:53:11;;;;;;;8.07;7.28;;;9.80;87.50;;;;;;5015392;28;20358;-46
2022/09/23 02:55:42;;;;;;;;;;;9.80;87.50;;;;;;5032125;28;20038;-44
2022/09/23 02:58:12;;;;;;;12.00;6.78;;;9.70;87.40;;;;;;5032827;28;20004;-46
2022/09/23 03:00:57;;;;;;;6.97;6.28;;;9.80;87.50;;;;;;5015731;28;20457;-48
2022/09/23 03:03:44;;;;;;;7.53;6.72;;;9.70;87.50;;;;;;5014033;28;20033;-47
2022/09/23 03:06:52;;;;;;;6.82;6.13;;;9.70;87.50;;;;;;5015527;28;20037;-44
2022/09/23 03:09:46;;;;;;;7.70;6.55;;;9.70;87.50;;;;;;5022265;28;20048;-45
2022/09/23 03:12:48;;;;;;;6.55;5.80;;;9.70;87.50;;;;;;5031887;28;20116;-46
2022/09/23 03:15:37;;;;;;;7.30;6.35;;;9.70;87.40;;;;;;5030692;28;20025;-45
2022/09/23 03:18:12;;;;;;;8.30;5.88;;;9.70;87.40;;;;;;5029977;28;20045;-47
2022/09/23 03:21:21;;;;;;;8.05;6.03;;;9.70;87.40;;;;;;5014708;28;20036;-45
2022/09/23 03:23:49;;;;;;;8.57;6.45;;;9.70;87.30;;;;;;4992920;28;20049;-45
2022/09/23 03:26:29;;;;;;;9.05;7.07;;;9.60;87.30;;;;;;5031494;28;20046;-46
2022/09/23 03:28:57;;;;;;;7.95;6.55;;;9.60;87.30;;;;;;5014957;28;20044;-47
2022/09/23 03:31:28;;;;;;;9.15;6.50;;;9.70;87.40;;;;;;5032454;28;20095;-45
2022/09/23 03:33:57;;;;;;;6.80;6.10;;;9.60;87.10;;;;;;5030391;28;20021;-45
2022/09/23 03:36:52;;;;;;;7.78;6.22;;;9.70;87.30;;;;;;5032271;28;20444;-48
2022/09/23 03:39:36;;;;;;;7.85;6.60;;;9.60;87.30;;;;;;5032224;28;20450;-47
2022/09/23 03:42:26;;;;;;;10.40;6.90;;;9.60;87.20;;;;;;5032123;28;20029;-47
2022/09/23 03:44:57;;;;;;;8.63;6.15;;;9.70;87.20;;;;;;5030549;28;20049;-44
2022/09/23 03:47:25;;;;;;;10.10;6.30;;;9.60;87.00;;;;;;5031347;28;20328;-44
2022/09/23 03:49:53;;;;;;;11.00;6.88;;;9.60;87.20;;;;;;5014687;28;20021;-43
2022/09/23 03:52:23;;;;;;;9.73;6.93;;;9.60;87.10;;;;;;5031921;28;20033;-46
2022/09/23 03:54:51;;;;;;;9.52;8.00;;;9.60;87.10;;;;;;4989442;28;20074;-46
2022/09/23 03:57:21;;;;;;;8.90;7.20;;;9.50;87.10;;;;;;5030846;28;20025;-46
2022/09/23 03:59:49;;;;;;;12.20;7.38;;;9.50;87.00;;;;;;5014872;28;20044;-46
2022/09/23 04:02:17;;;;;;;7.50;6.80;;;9.50;87.10;;;;;;5013222;28;20061;-43
2022/09/23 04:04:44;;;;;;;7.70;6.82;;;9.50;87.10;;;;;;5013779;28;20427;-47
2022/09/23 04:07:11;;;;;;;9.05;7.07;;;9.40;87.00;;;;;;5031648;28;20029;-46
2022/09/23 04:09:38;;;;;;;10.23;7.07;;;9.40;87.00;;;;;;4997686;28;20025;-45
2022/09/23 04:12:05;;;;;;;10.35;8.35;;;9.40;87.20;;;;;;5031771;28;20060;-44
2022/09/23 04:14:35;;;;;;;10.07;7.07;;;9.30;87.10;;;;;;5030738;28;20057;-46
2022/09/23 04:17:03;;;;;;;8.43;7.38;;;9.30;87.20;;;;;;5029820;28;20050;-45
2022/09/23 04:19:30;;;;;;;8.00;7.20;;;9.30;87.20;;;;;;5031128;28;20505;-44
2022/09/23 04:21:59;;;;;;;8.32;7.15;;;9.30;87.30;;;;;;5031378;28;20087;-46
2022/09/23 04:24:28;;;;;;;7.80;6.83;;;9.20;87.20;;;;;;5030156;28;20104;-45
2022/09/23 04:26:55;;;;;;;9.27;6.97;;;9.30;87.30;;;;;;5030788;28;20037;-45
2022/09/23 04:29:24;;;;;;;10.10;7.80;;;9.30;87.20;;;;;;5013297;28;20612;-45
2022/09/23 04:31:51;;;;;;;8.65;7.15;;;9.20;87.20;;;;;;5013117;28;20025;-46
2022/09/23 04:34:20;;;;;;;10.18;7.82;;;9.20;87.30;;;;;;5028786;28;20078;-48
2022/09/23 04:36:48;;;;;;;8.43;7.30;;;9.20;87.30;;;;;;5013575;28;20025;-46
2022/09/23 04:39:18;;;;;;;8.70;7.72;;;9.10;87.30;;;;;;5030597;28;20040;-47
2022/09/23 04:41:47;;;;;;;9.93;7.80;;;9.10;87.30;;;;;;5014076;28;20029;-46
2022/09/23 04:44:15;;;;;;;10.07;7.38;;;9.00;87.30;;;;;;5012638;28;20132;-44
2022/09/23 04:46:42;;;;;;;10.02;7.95;;;9.00;87.40;;;;;;5030428;28;20076;-45
2022/09/23 04:49:12;;;;;;;9.93;8.05;;;9.00;87.50;;;;;;5028408;28;20036;-44
2022/09/23 04:51:42;;;;;;;9.63;8.15;;;9.00;87.70;;;;;;5029950;28;20108;-47
2022/09/23 04:54:11;;;;;;;10.88;8.90;;;8.90;87.50;;;;;;5029433;28;20025;-44
2022/09/23 04:56:38;;;;;;;11.00;8.13;;;9.00;87.80;;;;;;5010420;28;20028;-44
2022/09/23 04:59:05;;;;;;;9.70;7.78;;;9.00;87.80;;;;;;5010435;28;20030;-48
2022/09/23 05:01:33;;;;;;;10.13;7.97;;;8.90;87.60;;;;;;5010757;28;20018;-44
2022/09/23 05:04:02;;;;;;;12.23;8.23;;;8.90;87.60;;;;;;5019606;28;20114;-45
2022/09/23 05:06:37;;;;;;;10.02;9.02;;;8.90;87.70;;;;;;5012885;28;20034;-45
2022/09/23 05:09:09;;;;;;;10.23;8.02;;;8.90;87.70;;;;;;5030414;28;20044;-47
2022/09/23 05:11:36;;;;;;;10.63;7.78;;;8.90;87.60;;;;;;5030608;28;20021;-46
2022/09/23 05:14:02;;;;;;;11.30;9.20;;;8.90;87.60;;;;;;5029629;28;20084;-45
2022/09/23 05:16:31;;;;;;;11.00;8.30;;;8.90;87.80;;;;;;5013001;28;20029;-44
2022/09/23 05:18:58;;;;;;;12.60;8.20;;;8.90;87.70;;;;;;5011631;28;20029;-43
2022/09/23 05:21:27;;;;;;;13.13;7.93;;;8.90;87.90;;;;;;5030202;28;20105;-44
2022/09/23 05:23:57;;;;;;;10.52;7.82;;;8.90;87.80;;;;;;5029083;28;20033;-49
2022/09/23 05:26:24;;;;;;;8.93;7.40;;;8.90;87.90;;;;;;5030319;28;20397;-46
2022/09/23 05:28:52;;;;;;;9.45;8.30;;;8.90;87.80;;;;;;5030247;28;20346;-46
2022/09/23 05:31:25;;;;;;;11.85;9.55;;;8.90;87.70;;;;;;5029882;28;20025;-44
2022/09/23 05:33:59;;;;;;;9.98;8.18;;;8.90;87.80;;;;;;4995594;28;20035;-44
2022/09/23 05:36:28;;;;;;;8.75;7.85;;;8.90;87.70;;;;;;5028384;28;20446;-46
2022/09/23 05:38:57;;;;;;;10.43;8.97;;;8.90;87.70;;;;;;5029747;28;20056;-46
2022/09/23 05:41:28;;;;;;;12.05;8.75;;;8.90;87.80;;;;;;5030399;28;20061;-46
2022/09/23 05:43:55;;;;;;;9.07;7.72;;;8.90;87.70;;;;;;5029902;28;20072;-45
2022/09/23 05:46:40;;;;;;;9.07;8.18;;;8.90;87.80;;;;;;5011263;28;20025;-46
2022/09/23 05:49:10;;;;;;;10.60;8.50;;;9.00;87.50;;;;;;5024930;28;20057;-44
2022/09/23 05:51:38;;;;;;;13.27;9.25;;;9.00;87.50;;;;;;5007954;28;20402;-44
2022/09/23 05:54:05;;;;;;;14.68;8.63;;;9.00;87.30;;;;;;5030272;28;20033;-47
2022/09/23 05:56:33;;;;;;;10.15;8.68;;;9.00;87.40;;;;;;5029773;28;20028;-45
2022/09/23 05:59:01;;;;;;;9.70;8.68;;;9.10;87.30;;;;;;5028625;28;20032;-45
2022/09/23 06:01:33;;;;;;;10.10;9.10;;;9.10;87.20;;;;;;5029457;28;20087;-46
2022/09/23 06:04:02;;;;;;;9.95;8.27;;;9.20;87.20;;;;;;5026969;28;20025;-46
2022/09/23 06:06:38;;;;;;;11.03;9.50;;;9.20;87.30;;;;;;5028869;28;20431;-43
2022/09/23 06:09:10;;;;;;;11.88;9.13;;;9.30;87.10;;;;;;5029564;28;20040;-45
2022/09/23 06:11:36;;;;;;;9.43;8.45;;;9.30;87.00;;;;;;5029015;28;20033;-44
2022/09/23 06:14:03;;;;;;;11.15;9.02;;;9.40;87.00;;;;;;5029282;28;20053;-44
2022/09/23 06:16:33;;;;;;;14.00;8.40;;;9.40;86.60;;;;;;5012039;28;20033;-44
2022/09/23 06:19:04;;;;;;;9.15;8.15;;;9.40;86.70;;;;;;5027092;28;20405;-44
2022/09/23 06:21:33;;;;;;;10.13;7.97;;;9.40;86.70;;;;;;5028691;28;20038;-47
2022/09/23 06:24:00;;;;;;;10.00;8.37;;;9.40;86.60;;;;;;5029456;28;20100;-44
2022/09/23 06:26:27;;;;;;;15.68;8.93;;;9.50;86.70;;;;;;5027800;28;20017;-46
2022/09/23 06:28:57;;;;;;;9.07;7.50;;;9.50;86.60;;;;;;5029319;28;20100;-48
2022/09/23 06:31:24;;;;;;;8.75;7.85;;;9.60;86.40;;;;;;5028662;28;20367;-43
2022/09/23 06:33:52;;;;;;;9.32;7.55;;;9.60;86.40;;;;;;5027460;28;20033;-44
2022/09/23 06:36:19;;;;;;;9.82;8.85;;;9.70;86.20;;;;;;5029321;28;20109;-46
2022/09/23 06:38:48;;;;;;;13.80;8.18;;;9.70;85.90;;;;;;5012029;28;20033;-45
2022/09/23 06:41:14;;;;;;;9.27;8.13;;;9.70;86.20;;;;;;5029113;28;20029;-45
2022/09/23 06:43:41;;;;;;;11.52;7.75;;;9.70;86.00;;;;;;5028233;28;20076;-47
2022/09/23 06:46:10;;;;;;;15.68;9.23;;;9.80;86.10;;;;;;5029427;28;20105;-46
2022/09/23 06:48:37;;;;;;;12.88;10.27;;;9.80;85.80;;;;;;5028409;28;20041;-47
2022/09/23 06:51:06;;;;;;;14.35;9.32;;;9.80;85.90;;;;;;5029049;28;20021;-46
2022/09/23 06:53:33;;;;;;;14.48;9.52;;;9.80;85.80;;;;;;5011580;28;20117;-45
2022/09/23 06:56:05;;;;;;;12.18;8.73;;;9.90;85.80;;;;;;5010935;28;20043;-45
2022/09/23 06:58:33;;;;;;;11.68;8.80;;;9.90;85.70;;;;;;5029520;28;20107;-45
2022/09/23 07:01:05;;;;;;;10.60;9.00;;;9.90;85.60;;;;;;5010741;28;20377;-44
2022/09/23 07:03:32;;;;;;;9.63;8.23;;;9.90;85.40;;;;;;5009504;28;20116;-43
2022/09/23 07:06:00;;;;;;;9.52;8.48;;;9.90;85.60;;;;;;5029095;28;20030;-46
2022/09/23 07:08:29;;;;;;;10.45;8.02;;;10.00;85.60;;;;;;5028607;28;20037;-45
2022/09/23 07:11:00;;;;;;;10.05;9.05;;;10.00;85.40;;;;;;5027641;28;20029;-46
2022/09/23 07:13:33;;;;;;;9.57;8.48;;;10.00;85.20;;;;;;5029040;28;20036;-44
2022/09/23 07:16:01;;;;;;;9.25;8.27;;;10.10;85.20;;;;;;5011428;28;20424;-45
2022/09/23 07:18:33;;;;;;;9.68;7.72;;;10.10;85.10;;;;;;5009524;28;20020;-45
2022/09/23 07:21:16;;;;;;;9.10;7.60;;;10.20;85.20;;;;;;5028987;28;20026;-48
2022/09/23 07:23:49;;;;;;;9.35;7.82;;;10.20;85.20;;;;;;5011476;28;20083;-44
2022/09/23 07:26:21;;;;;;;11.73;7.43;;;10.30;85.50;;;;;;5028840;28;20031;-46
2022/09/23 07:28:55;;;;;;;9.82;7.85;;;10.40;85.40;;;;;;5027706;28;20349;-46
2022/09/23 07:31:22;;;;;;;10.20;7.95;;;10.50;85.50;;;;;;5029107;28;20053;-46
2022/09/23 07:33:48;;;;;;;8.93;7.30;;;10.70;84.70;;;;;;5030233;28;20037;-44
2022/09/23 07:36:17;;;;;;;11.70;7.90;;;11.00;84.50;;;;;;5031861;28;20457;-47
2022/09/23 07:38:48;;;;;;;9.83;6.73;;;11.40;83.20;;;;;;5031635;28;20122;-45
2022/09/23 07:41:18;;;;;;;9.50;6.90;;;11.70;81.50;;;;;;5028271;28;20041;-47
2022/09/23 07:43:45;;;;;;;7.68;6.18;;;12.10;80.60;;;;;;5031817;28;20044;-48
2022/09/23 07:46:16;;;;;;;7.93;6.95;;;12.50;79.80;;;;;;5014308;28;20026;-48
2022/09/23 07:48:44;;;;;;;8.23;6.60;;;13.00;77.90;;;;;;5029716;28;20050;-48
2022/09/23 07:51:22;;;;;;;10.10;6.38;;;13.20;76.40;;;;;;5014510;28;20057;-48
2022/09/23 07:53:53;;;;;;;6.47;5.32;;;13.60;76.00;;;;;;5032167;28;20029;-47
2022/09/23 07:56:24;;;;;;;7.75;6.13;;;13.50;75.60;;;;;;5032027;28;20022;-48
2022/09/23 07:59:00;;;;;;;6.60;5.70;;;13.80;75.30;;;;;;5027607;28;20548;-45
2022/09/23 08:01:51;;;;;;;6.32;5.35;;;13.90;74.40;;;;;;5012911;28;20404;-47
2022/09/23 08:04:21;;;;;;;7.82;5.50;;;13.90;73.30;;;;;;5029880;28;20438;-45
2022/09/23 08:06:52;;;;;;;8.40;6.32;;;14.10;73.50;;;;;;5031804;28;20040;-49
2022/09/23 08:09:27;;;;;;;6.30;5.40;;;14.20;72.60;;;;;;5029980;28;20025;-49
2022/09/23 08:11:57;;;;;;;7.68;5.22;;;14.40;73.10;;;;;;5014205;28;20389;-48
2022/09/23 08:14:24;;;;;;;6.70;5.40;;;14.70;71.70;;;;;;5014125;28;20112;-48
2022/09/23 08:16:52;;;;;;;5.57;4.80;;;14.70;71.10;;;;;;5014189;28;20719;-51
2022/09/23 08:19:19;;;;;;;11.63;5.93;;;14.90;71.20;;;;;;5029285;28;20027;-49
2022/09/23 08:21:47;;;;;;;8.35;5.47;;;15.00;71.50;;;;;;4997578;28;20037;-46
2022/09/23 08:24:19;;;;;;;8.52;5.40;;;15.10;70.90;;;;;;5031371;28;20099;-48
2022/09/23 08:26:46;;;;;;;8.63;5.97;;;15.20;70.60;;;;;;5031495;28;20029;-51
2022/09/23 08:29:15;;;;;;;9.23;6.00;;;15.10;70.80;;;;;;5013789;28;20029;-47
2022/09/23 08:31:46;;;;;;;9.17;5.80;;;15.20;71.00;;;;;;5029689;28;20033;-52
2022/09/23 08:34:13;;;;;;;10.35;6.65;;;15.50;70.70;;;;;;5011741;28;20296;-45
2022/09/23 08:36:40;;;;;;;9.27;5.85;;;15.60;70.10;;;;;;5031345;28;20025;-49
2022/09/23 08:39:06;;;;;;;9.45;5.10;;;15.70;69.70;;;;;;5013030;28;20072;-48
2022/09/23 08:42:13;;;;;;;8.73;6.10;;;16.30;70.30;;;;;;5030798;28;20057;-47
2022/09/23 08:44:53;;;;;;;7.65;5.72;;;16.80;68.30;;;;;;4966910;28;20073;-49
2022/09/23 08:47:33;;;;;;;14.18;5.32;;;16.90;66.60;;;;;;5011111;28;20050;-49
2022/09/23 08:50:11;;;;;;;7.38;5.53;;;17.00;67.50;;;;;;5017659;28;20098;-48
2022/09/23 08:53:01;;;;;;;7.28;5.15;;;16.90;65.80;;;;;;5029369;28;20025;-46
2022/09/23 08:55:45;;;;;;;6.97;5.38;;;16.60;67.10;;;;;;5030549;28;20029;-49
2022/09/23 08:58:48;;;;;;;8.85;5.43;;;16.60;67.90;;;;;;5030735;28;20477;-47
2022/09/23 09:01:38;;;;;;;7.70;6.15;;;16.70;66.90;;;;;;5030643;28;20034;-48
2022/09/23 09:04:20;;;;;;;11.60;5.68;;;16.50;68.00;;;;;;5028652;28;20029;-47
2022/09/23 09:07:08;;;;;;;6.60;5.35;;;16.10;68.20;;;;;;5029563;28;20036;-49
2022/09/23 09:10:01;;;;;;;7.95;6.22;;;15.80;69.90;;;;;;5012916;28;20032;-47
2022/09/23 09:12:50;;;;;;;8.60;6.55;;;15.60;70.60;;;;;;5013173;28;20021;-46
2022/09/23 09:15:26;;;;;;;10.02;6.35;;;15.40;71.30;;;;;;5029305;28;20064;-46
2022/09/23 09:18:11;;;;;;;6.70;5.72;;;15.40;72.50;;;;;;5012974;28;20029;-47
2022/09/23 09:20:59;;;;;;;15.73;6.97;;;15.60;72.30;;;;;;5011712;28;20026;-46
2022/09/23 09:23:56;;;;;;;9.23;6.47;;;15.50;72.20;;;;;;5029932;28;20097;-48
2022/09/23 09:26:42;;;;;;;10.95;6.97;;;15.60;71.30;;;;;;5009080;28;20025;-49
2022/09/23 09:29:38;;;;;;;8.63;6.78;;;15.70;71.80;;;;;;5030197;28;20026;-47
2022/09/23 09:32:18;;;;;;;11.10;6.85;;;16.00;70.90;;;;;;5024366;28;20029;-50
2022/09/23 09:34:54;;;;;;;8.02;6.55;;;16.10;71.40;;;;;;5011709;28;20366;-51
2022/09/23 09:37:43;;;;;;;10.80;7.78;;;16.20;70.20;;;;;;5012530;28;20029;-46
2022/09/23 09:40:13;;;;;;;9.65;6.78;;;16.40;70.60;;;;;;5030257;28;20031;-50
2022/09/23 09:42:43;;;;;;;9.90;6.25;;;16.30;68.70;;;;;;5012950;28;20456;-46
2022/09/23 09:45:52;;;;;;;8.20;6.45;;;16.20;69.30;;;;;;5030239;28;20413;-46
2022/09/23 09:48:26;;;;;;;9.37;6.97;;;16.20;69.00;;;;;;5028023;28;20482;-48
2022/09/23 09:51:17;;;;;;;8.95;6.65;;;16.30;71.30;;;;;;5019980;28;20534;-48
2022/09/23 09:53:44;;;;;;;7.22;6.38;;;16.30;69.90;;;;;;5011763;28;20033;-49
2022/09/23 09:56:15;;;;;;;9.02;6.97;;;16.30;69.50;;;;;;5010869;28;20033;-46
2022/09/23 09:59:12;;;;;;;9.68;6.95;;;16.10;70.30;;;;;;5026747;28;20033;-49
2022/09/23 10:01:38;;;;;;;9.55;6.95;;;16.10;70.60;;;;;;5028881;28;20378;-50
2022/09/23 10:04:23;;;;;;;8.23;6.65;;;16.00;70.20;;;;;;5029241;28;20017;-45
2022/09/23 10:07:14;;;;;;;8.68;7.10;;;16.30;72.20;;;;;;5020955;28;20029;-48
2022/09/23 10:09:49;;;;;;;11.15;6.43;;;16.40;69.60;;;;;;5012087;28;20648;-50
2022/09/23 10:12:24;;;;;;;6.70;6.00;;;16.40;69.30;;;;;;5012069;28;20672;-46
2022/09/23 10:14:55;;;;;;;8.30;7.45;;;16.50;69.70;;;;;;5028040;28;20065;-48
2022/09/23 10:17:39;;;;;;;11.10;6.75;;;16.60;68.30;;;;;;5029089;28;20029;-46
2022/09/23 10:20:14;;;;;;;11.63;7.15;;;16.80;68.90;;;;;;5028387;28;20025;-46
2022/09/23 10:22:42;;;;;;;7.80;6.65;;;16.90;68.60;;;;;;5028983;28;20103;-48
2022/09/23 10:25:15;;;;;;;8.52;6.40;;;17.10;67.30;;;;;;5028277;28;20365;-49
2022/09/23 10:27:47;;;;;;;9.57;6.57;;;16.90;67.30;;;;;;5011765;28;20450;-47
2022/09/23 10:30:27;;;;;;;9.90;6.63;;;17.00;67.40;;;;;;5028886;28;20026;-44
2022/09/23 10:32:55;;;;;;;11.02;7.05;;;17.20;66.90;;;;;;5012701;28;20060;-48
2022/09/23 10:35:27;;;;;;;9.40;6.97;;;17.20;67.10;;;;;;5027557;28;20036;-46
2022/09/23 10:38:11;;;;;;;8.50;6.25;;;17.20;66.10;;;;;;5011341;28;20050;-46
2022/09/23 10:46:40;;;;;;;8.68;7.05;;;17.00;66.80;;;;;;5028572;28;20028;-49
2022/09/23 10:49:45;;;;;;;8.32;6.78;;;16.90;67.10;;;;;;5013680;28;20038;-50
2022/09/23 10:52:37;;;;;;;11.55;7.97;;;16.80;67.60;;;;;;5009477;28;20045;-45
2022/09/23 10:55:24;;;;;;;8.77;7.00;;;16.80;66.80;;;;;;5009258;28;20034;-47
2022/09/23 10:58:20;;;;;;;8.90;7.20;;;16.80;67.70;;;;;;5009183;28;20351;-48
2022/09/23 11:01:14;;;;;;;10.05;7.10;;;16.70;66.80;;;;;;5009242;28;20040;-46
2022/09/23 11:04:23;;;;;;;8.82;6.70;;;16.40;68.00;;;;;;5009112;28;20498;-48
2022/09/23 11:07:01;;;;;;;;;;;16.30;68.80;;;;;;4948641;28;20042;-45
2022/09/23 11:09:39;;;;;;;9.68;7.28;;;16.40;68.70;;;;;;4952614;29;19914;-46
2022/09/23 11:12:13;;;;;;;9.30;7.07;;;16.20;69.90;;;;;;4935214;29;20047;-45
2022/09/23 11:15:13;;;;;;;8.73;7.13;;;16.20;70.10;;;;;;4952192;29;20043;-46
2022/09/23 11:18:50;;;;;;;9.13;8.23;;;16.20;71.20;;;;;;4952254;29;20065;-45
2022/09/23 11:21:37;;;;;;;8.48;7.30;;;16.00;70.10;;;;;;4878517;29;20040;-48
2022/09/23 11:24:33;;;;;;;11.70;7.40;;;15.90;70.60;;;;;;4894942;29;20040;-46
2022/09/23 11:27:21;;;;;;;9.75;6.95;;;16.00;71.40;;;;;;4925902;29;20051;-46
2022/09/23 11:30:11;;;;;;;9.63;6.60;;;15.90;71.60;;;;;;4932946;29;20024;-46
2022/09/23 11:32:52;;;;;;;11.38;8.07;;;15.90;71.10;;;;;;4933153;29;20038;-48
2022/09/23 11:35:55;;;;;;;11.52;8.88;;;15.90;71.70;;;;;;4933067;29;20043;-45
2022/09/23 11:38:34;;;;;;;10.10;7.78;;;15.90;71.50;;;;;;4932945;29;20103;-46
2022/09/23 11:41:17;;;;;;;11.13;7.27;;;15.70;71.50;;;;;;4978582;28;20045;-48
2022/09/23 11:43:54;;;;;;;10.15;7.75;;;15.70;72.50;;;;;;5006773;28;20316;-48
2022/09/23 11:46:33;;;;;;;11.80;8.32;;;15.80;71.80;;;;;;5032348;28;20477;-48
2022/09/23 11:49:33;;;;;;;13.88;8.75;;;15.90;72.10;;;;;;5031642;28;20041;-50
2022/09/23 11:52:18;;;;;;;8.82;7.35;;;15.90;72.30;;;;;;5011310;28;20068;-48
2022/09/23 11:55:13;;;;;;;10.05;8.27;;;15.90;71.70;;;;;;5031616;28;20056;-46
2022/09/23 11:58:09;;;;;;;8.85;7.95;;;16.00;72.40;;;;;;5014286;28;20328;-47
2022/09/23 12:00:43;;;;;;;9.25;7.35;;;16.20;71.40;;;;;;5021313;28;20312;-46
2022/09/23 12:03:36;;;;;;;11.68;9.00;;;16.10;71.80;;;;;;5011754;28;20030;-45
2022/09/23 12:06:18;;;;;;;10.25;7.88;;;16.20;71.20;;;;;;5015166;28;20029;-47
2022/09/23 12:08:46;;;;;;;10.40;7.93;;;16.20;71.70;;;;;;4994633;28;20025;-46
2022/09/23 12:11:20;;;;;;;11.05;8.13;;;16.20;70.80;;;;;;5011903;28;20117;-46
2022/09/23 12:14:00;;;;;;;8.20;7.35;;;16.20;71.80;;;;;;5011689;28;20527;-46
2022/09/23 12:16:47;;;;;;;;;;;16.30;72.10;;;;;;4996096;28;20041;-45
2022/09/23 12:19:41;;;;;;;8.85;7.50;;;16.40;72.70;;;;;;5009728;28;19910;-48
2022/09/23 12:22:44;;;;;;;11.73;8.02;;;16.40;71.50;;;;;;5022391;28;20336;-45
2022/09/23 12:25:32;;;;;;;11.35;8.65;;;16.50;70.70;;;;;;5011313;28;20490;-47
2022/09/23 12:28:15;;;;;;;11.90;8.13;;;16.40;71.00;;;;;;5011336;28;20071;-45
2022/09/23 12:30:42;;;;;;;10.95;7.38;;;16.40;70.50;;;;;;5029801;28;20051;-47
2022/09/23 12:33:21;;;;;;;12.93;8.40;;;16.40;71.00;;;;;;5014106;28;20034;-45
2022/09/23 12:35:55;;;;;;;10.45;8.30;;;16.50;70.80;;;;;;5030341;28;20497;-47
2022/09/23 12:38:46;;;;;;;10.07;7.78;;;16.60;70.30;;;;;;5031262;28;20025;-45
2022/09/23 12:41:37;;;;;;;13.35;7.60;;;16.70;70.40;;;;;;4996372;28;20087;-46
2022/09/23 12:44:38;;;;;;;9.43;7.32;;;16.70;70.20;;;;;;5013682;28;20040;-49
2022/09/23 12:47:28;;;;;;;8.88;7.30;;;16.80;70.30;;;;;;5029898;28;20049;-48
2022/09/23 12:49:55;;;;;;;9.43;7.93;;;16.80;69.90;;;;;;5024631;28;20034;-45
2022/09/23 12:52:31;;;;;;;9.80;6.78;;;16.80;69.50;;;;;;5027769;28;20032;-47
2022/09/23 12:55:22;;;;;;;9.48;7.25;;;16.70;69.10;;;;;;5029600;28;20025;-48
2022/09/23 12:57:49;;;;;;;13.00;8.50;;;16.70;69.50;;;;;;5011622;28;20045;-48
2022/09/23 13:00:25;;;;;;;13.93;8.02;;;16.80;70.00;;;;;;5026882;28;20021;-48
2022/09/23 13:08:43;;;;;;;13.02;7.50;;;16.90;70.70;;;;;;5029825;28;20078;-46
2022/09/23 13:11:32;;;;;;;9.23;7.40;;;17.00;69.70;;;;;;5029628;28;20021;-51
2022/09/23 13:14:03;;;;;;;8.98;6.97;;;17.00;69.70;;;;;;5028409;28;20025;-46
2022/09/23 13:16:48;;;;;;;10.05;6.78;;;17.10;69.30;;;;;;5030062;28;20026;-46
2022/09/23 13:19:32;;;;;;;7.88;6.85;;;17.10;69.40;;;;;;5012791;28;20045;-48
2022/09/23 13:22:07;;;;;;;8.23;7.15;;;17.00;67.80;;;;;;5029367;28;20485;-49
2022/09/23 13:24:42;;;;;;;10.20;7.05;;;16.90;68.50;;;;;;5012775;28;20434;-47
2022/09/23 13:27:31;;;;;;;9.90;7.00;;;16.90;68.40;;;;;;5030574;28;20100;-46
2022/09/23 13:30:20;;;;;;;8.50;7.30;;;16.90;69.30;;;;;;5012628;28;20032;-48
2022/09/23 13:33:10;;;;;;;10.77;7.50;;;16.90;69.20;;;;;;5029363;28;20112;-50
2022/09/23 13:35:49;;;;;;;9.65;7.13;;;17.00;69.40;;;;;;5029992;28;20094;-45
2022/09/23 13:38:34;;;;;;;8.83;7.93;;;17.00;69.20;;;;;;5029646;28;20053;-51
2022/09/23 13:41:27;;;;;;;23.25;7.60;;;17.00;69.10;;;;;;5029743;28;20048;-50
2022/09/23 13:43:57;;;;;;;11.30;7.18;;;16.90;68.90;;;;;;5029269;28;20108;-50
2022/09/23 13:46:29;;;;;;;9.90;6.93;;;16.90;69.50;;;;;;5029724;28;20055;-48
2022/09/23 13:48:56;;;;;;;7.30;6.13;;;16.90;68.70;;;;;;5011843;28;20489;-48
2022/09/23 13:51:35;;;;;;;8.57;5.45;;;16.90;69.10;;;;;;5027268;28;20057;-46